createdAt,value
2023-11-03T00:01:33.151Z,97894.48
2023-11-03T00:04:02.802Z,97878.93
2023-11-03T00:06:32.610Z,97854.81
2023-11-03T00:09:00.595Z,97847.98
2023-11-03T00:11:28.566Z,97825.23
2023-11-03T00:13:56.422Z,97816.19
2023-11-03T00:16:24.358Z,97806.35
2023-11-03T00:18:52.413Z,97795.13
2023-11-03T00:21:21.207Z,97801.64
2023-11-03T00:23:49.110Z,97807.90
2023-11-03T00:26:17.015Z,97820.16
2023-11-03T00:28:49.196Z,97818.02
2023-11-03T00:31:17.739Z,97810.52
2023-11-03T00:33:45.811Z,97814.99
2023-11-03T00:36:16.442Z,97803.64
2023-11-03T00:38:46.283Z,97802.09
2023-11-03T00:41:15.776Z,97810.96
2023-11-03T00:43:47.972Z,97810.27
2023-11-03T00:46:15.859Z,97801.77
2023-11-03T00:48:45.288Z,97812.83
2023-11-03T00:51:13.519Z,97808.08
2023-11-03T00:53:41.407Z,97805.00
2023-11-03T00:56:10.295Z,97792.17
2023-11-03T00:58:38.246Z,97782.84
2023-11-03T01:01:08.592Z,97766.46
2023-11-03T01:03:37.229Z,97752.16
2023-11-03T01:06:06.232Z,97756.05
2023-11-03T01:08:35.036Z,97762.05
2023-11-03T01:11:04.060Z,97763.39
2023-11-03T01:13:32.609Z,97759.52
2023-11-03T01:16:00.608Z,97767.56
2023-11-03T01:18:29.595Z,97767.66
2023-11-03T01:20:58.840Z,97770.23
2023-11-03T01:23:26.810Z,97765.34
2023-11-03T01:25:56.125Z,97760.70
2023-11-03T01:28:24.920Z,97759.59
2023-11-03T01:30:54.023Z,97758.63
2023-11-03T01:33:22.074Z,97751.16
2023-11-03T01:35:50.202Z,97760.63
2023-11-03T01:38:18.086Z,97757.51
2023-11-03T01:40:46.149Z,97750.59
2023-11-03T01:43:14.435Z,97740.68
2023-11-03T01:45:42.711Z,97743.16
2023-11-03T01:48:10.718Z,97740.20
2023-11-03T01:50:38.910Z,97742.52
2023-11-03T01:53:07.020Z,97746.92
2023-11-03T01:55:35.581Z,97740.54
2023-11-03T01:58:03.694Z,97746.23
2023-11-03T02:00:32.139Z,97739.03
2023-11-03T02:03:00.774Z,97742.51
2023-11-03T02:05:29.061Z,97740.73
2023-11-03T02:07:57.036Z,97732.37
2023-11-03T02:10:24.990Z,97734.07
2023-11-03T02:12:52.939Z,97735.80
2023-11-03T02:15:20.903Z,97732.20
2023-11-03T02:17:49.284Z,97733.38
2023-11-03T02:20:18.053Z,97728.90
2023-11-03T02:22:45.971Z,97728.13
2023-11-03T02:25:14.060Z,97728.80
2023-11-03T02:27:42.109Z,97724.84
2023-11-03T02:30:11.182Z,97721.77
2023-11-03T02:32:40.516Z,97717.23
2023-11-03T02:35:10.703Z,97715.63
2023-11-03T02:37:38.737Z,97712.42
2023-11-03T02:40:08.879Z,97708.93
2023-11-03T02:42:36.948Z,97699.89
2023-11-03T02:45:07.118Z,97688.41
2023-11-03T02:47:36.046Z,97699.47
2023-11-03T02:50:05.199Z,97700.48
2023-11-03T02:52:33.136Z,97701.81
2023-11-03T02:55:01.062Z,97707.58
2023-11-03T02:57:29.058Z,97701.12
2023-11-03T02:59:57.126Z,97696.66
2023-11-03T03:02:25.053Z,97686.81
2023-11-03T03:04:52.980Z,97687.09
2023-11-03T03:07:20.959Z,97685.31
2023-11-03T03:09:48.864Z,97676.02
2023-11-03T03:12:17.865Z,97681.12
2023-11-03T03:14:45.871Z,97673.44
2023-11-03T03:17:13.795Z,97671.83
2023-11-03T03:19:41.728Z,97673.07
2023-11-03T03:22:09.720Z,97673.83
2023-11-03T03:24:37.627Z,97677.20
2023-11-03T03:27:05.897Z,97672.20
2023-11-03T03:29:33.869Z,97672.33
2023-11-03T03:32:02.154Z,97672.36
2023-11-03T03:34:30.976Z,97667.63
2023-11-03T03:36:59.017Z,97666.08
2023-11-03T03:39:26.971Z,97666.61
2023-11-03T03:41:54.883Z,97658.06
2023-11-03T03:44:23.109Z,97660.55
2023-11-03T03:46:52.807Z,97661.02
2023-11-03T03:49:21.356Z,97659.78
2023-11-03T03:51:49.339Z,97660.48
2023-11-03T03:54:17.246Z,97654.73
2023-11-03T03:56:45.051Z,97653.44
2023-11-03T03:59:13.133Z,97654.63
2023-11-03T04:01:43.669Z,97654.30
2023-11-03T04:04:11.609Z,97654.98
2023-11-03T04:06:40.216Z,97655.89
2023-11-03T04:09:08.167Z,97655.05
2023-11-03T04:11:36.277Z,97658.98
2023-11-03T04:14:04.180Z,97658.95
2023-11-03T04:16:36.922Z,97663.39
2023-11-03T04:19:05.071Z,97662.04
2023-11-03T04:21:33.156Z,97658.95
2023-11-03T04:24:01.150Z,97659.69
2023-11-03T04:26:29.154Z,97663.21
2023-11-03T04:28:57.032Z,97662.04
2023-11-03T04:31:25.018Z,97660.74
2023-11-03T04:33:53.842Z,97661.06
2023-11-03T04:36:21.888Z,97660.46
2023-11-03T04:38:50.073Z,97660.27
2023-11-03T04:41:18.007Z,97660.85
2023-11-03T04:43:47.011Z,97656.77
2023-11-03T04:46:15.064Z,97656.59
2023-11-03T04:48:45.431Z,97658.14
2023-11-03T04:51:14.504Z,97663.17
2023-11-03T04:53:44.619Z,97662.91
2023-11-03T04:56:12.470Z,97664.90
2023-11-03T04:58:40.368Z,97665.97
2023-11-03T05:01:08.309Z,97660.48
2023-11-03T05:03:36.209Z,97661.15
2023-11-03T05:06:04.623Z,97662.30
2023-11-03T05:08:32.489Z,97666.20
2023-11-03T05:11:02.596Z,97666.48
2023-11-03T05:13:30.566Z,97668.88
2023-11-03T05:15:58.515Z,97671.02
2023-11-03T05:18:28.902Z,97671.41
2023-11-03T05:20:56.828Z,97674.49
2023-11-03T05:23:24.701Z,97681.33
2023-11-03T05:25:53.048Z,97676.98
2023-11-03T05:28:21.585Z,97678.55
2023-11-03T05:30:49.871Z,97681.34
2023-11-03T05:33:19.313Z,97691.79
2023-11-03T05:35:47.704Z,97697.73
2023-11-03T05:38:16.594Z,97701.51
2023-11-03T05:40:45.218Z,97709.08
2023-11-03T05:43:13.251Z,97711.23
2023-11-03T05:45:41.395Z,97717.21
2023-11-03T05:48:09.500Z,97719.36
2023-11-03T05:50:37.571Z,97715.48
2023-11-03T05:53:05.477Z,97721.65
2023-11-03T05:55:33.378Z,97726.80
2023-11-03T05:58:01.448Z,97733.99
2023-11-03T06:00:30.564Z,97736.60
2023-11-03T06:02:58.627Z,97739.90
2023-11-03T06:05:26.765Z,97739.80
2023-11-03T06:07:54.710Z,97741.42
2023-11-03T06:10:22.650Z,97739.66
2023-11-03T06:12:51.241Z,97740.11
2023-11-03T06:15:19.232Z,97735.01
2023-11-03T06:17:47.184Z,97735.81
2023-11-03T06:20:16.001Z,97740.76
2023-11-03T06:22:43.838Z,97733.08
2023-11-03T06:25:11.865Z,97726.10
2023-11-03T06:27:39.842Z,97723.56
2023-11-03T06:30:08.518Z,97703.36
2023-11-03T06:32:36.438Z,97680.32
2023-11-03T06:35:05.009Z,97691.11
2023-11-03T06:37:35.818Z,97715.67
2023-11-03T06:40:04.692Z,97739.85
2023-11-03T06:42:32.593Z,97733.03
2023-11-03T06:45:00.542Z,97751.52
2023-11-03T06:47:28.722Z,97774.61
2023-11-03T06:49:56.669Z,97771.16
2023-11-03T06:52:24.872Z,97755.11
2023-11-03T06:54:53.126Z,97743.29
2023-11-03T06:57:22.005Z,97746.55
2023-11-03T06:59:50.694Z,97765.85
2023-11-03T07:02:19.041Z,97788.86
2023-11-03T07:04:48.364Z,97799.55
2023-11-03T07:07:17.383Z,97810.73
2023-11-03T07:09:45.506Z,97810.39
2023-11-03T07:12:14.033Z,97820.81
2023-11-03T07:14:42.049Z,97826.10
2023-11-03T07:17:10.539Z,97823.45
2023-11-03T07:19:43.984Z,97830.23
2023-11-03T07:22:12.219Z,97834.09
2023-11-03T07:24:40.128Z,97838.71
2023-11-03T07:27:08.030Z,97830.72
2023-11-03T07:29:36.403Z,97835.61
2023-11-03T07:32:06.586Z,97840.33
2023-11-03T07:34:34.611Z,97843.51
2023-11-03T07:37:02.846Z,97846.94
2023-11-03T07:39:30.891Z,97852.33
2023-11-03T07:41:59.413Z,97855.98
2023-11-03T07:44:27.512Z,97853.06
2023-11-03T07:46:56.054Z,97838.29
2023-11-03T07:49:23.968Z,97843.40
2023-11-03T07:51:52.636Z,97838.30
2023-11-03T07:54:20.518Z,97841.05
2023-11-03T07:56:48.389Z,97840.66
2023-11-03T07:59:16.339Z,97837.70
2023-11-03T08:01:44.308Z,97836.26
2023-11-03T08:04:12.827Z,97825.35
2023-11-03T08:06:42.402Z,97821.73
2023-11-03T08:09:13.031Z,97821.73
2023-11-03T08:11:41.792Z,97830.95
2023-11-03T08:14:10.398Z,97835.08
2023-11-03T08:16:45.216Z,97839.81
2023-11-03T08:19:14.113Z,97843.46
2023-11-03T08:21:45.024Z,97848.79
2023-11-03T08:24:14.420Z,97859.65
2023-11-03T08:26:42.651Z,97856.36
2023-11-03T08:29:12.767Z,97848.95
2023-11-03T08:31:41.839Z,97828.14
2023-11-03T08:34:13.193Z,97814.80
2023-11-03T08:36:41.346Z,97818.39
2023-11-03T08:39:23.618Z,97812.98
2023-11-03T08:41:56.058Z,97829.52
2023-11-03T08:44:24.231Z,97845.83
2023-11-03T08:46:52.606Z,97851.41
2023-11-03T08:49:20.639Z,97859.84
2023-11-03T08:51:50.896Z,97878.29
2023-11-03T08:54:19.479Z,97882.28
2023-11-03T08:56:48.385Z,97888.95
2023-11-03T08:59:16.348Z,97894.60
2023-11-03T09:01:44.953Z,97884.16
2023-11-03T09:04:15.577Z,97868.19
2023-11-03T09:06:43.824Z,97862.55
2023-11-03T09:09:14.370Z,97854.69
2023-11-03T09:11:47.412Z,97846.59
2023-11-03T09:14:16.974Z,97827.15
2023-11-03T09:16:45.039Z,97815.64
2023-11-03T09:19:13.006Z,97815.16
2023-11-03T09:21:40.924Z,97814.38
2023-11-03T09:24:09.194Z,97817.11
2023-11-03T09:26:37.172Z,97820.05
2023-11-03T09:29:05.261Z,97818.92
2023-11-03T09:31:33.938Z,97819.26
2023-11-03T09:34:02.018Z,97819.64
2023-11-03T09:36:30.460Z,97820.18
2023-11-03T09:38:58.333Z,97824.27
2023-11-03T09:41:27.972Z,97827.82
2023-11-03T09:43:56.101Z,97833.70
2023-11-03T09:46:24.380Z,97840.71
2023-11-03T09:48:52.788Z,97838.88
2023-11-03T09:51:22.591Z,97838.52
2023-11-03T09:53:54.449Z,97829.33
2023-11-03T09:56:23.423Z,97818.21
2023-11-03T09:58:51.314Z,97806.95
2023-11-03T10:01:20.413Z,97802.29
2023-11-03T10:03:48.963Z,97798.91
2023-11-03T10:06:17.126Z,97795.78
2023-11-03T10:08:45.307Z,97796.53
2023-11-03T10:11:13.725Z,97805.39
2023-11-03T10:13:41.580Z,97801.60
2023-11-03T10:16:09.550Z,97798.73
2023-11-03T10:18:38.967Z,97792.48
2023-11-03T10:21:10.161Z,97787.29
2023-11-03T10:23:38.743Z,97781.51
2023-11-03T10:26:09.426Z,97781.59
2023-11-03T10:28:37.426Z,97774.41
2023-11-03T10:31:05.828Z,97773.06
2023-11-03T10:33:36.157Z,97768.47
2023-11-03T10:36:04.870Z,97765.27
2023-11-03T10:38:32.736Z,97759.33
2023-11-03T10:41:03.153Z,97766.31
2023-11-03T10:43:38.142Z,97761.43
2023-11-03T10:46:27.355Z,97757.38
2023-11-03T10:49:12.016Z,97753.79
2023-11-03T10:51:52.916Z,97749.28
2023-11-03T10:54:49.639Z,97750.94
2023-11-03T10:57:37.494Z,97759.32
2023-11-03T11:00:28.106Z,97757.09
2023-11-03T11:03:16.900Z,97757.95
2023-11-03T11:06:01.535Z,97760.52
2023-11-03T11:08:33.543Z,97756.80
2023-11-03T11:14:17.205Z,97755.71
2023-11-03T11:16:45.072Z,97755.24
2023-11-03T11:19:15.668Z,97753.63
2023-11-03T11:21:51.523Z,97760.94
2023-11-03T11:24:21.880Z,97758.14
2023-11-03T11:26:52.779Z,97761.16
2023-11-03T11:29:30.031Z,97759.12
2023-11-03T11:32:05.595Z,97759.27
2023-11-03T11:34:36.871Z,97754.77
2023-11-03T11:37:34.275Z,97752.52
2023-11-03T11:40:06.986Z,97746.46
2023-11-03T11:42:46.876Z,97750.55
2023-11-03T11:45:19.887Z,97744.69
2023-11-03T11:47:48.442Z,97744.59
2023-11-03T11:50:20.601Z,97744.55
2023-11-03T11:52:50.897Z,97744.07
2023-11-03T11:55:20.381Z,97743.21
2023-11-03T11:57:49.308Z,97741.57
2023-11-03T12:00:17.782Z,97737.36
2023-11-03T12:02:50.510Z,97729.13
2023-11-03T12:05:20.068Z,97722.52
2023-11-03T12:07:48.112Z,97718.29
2023-11-03T12:10:18.280Z,97713.48
2023-11-03T12:12:46.609Z,97709.17
2023-11-03T12:15:16.088Z,97711.00
2023-11-03T12:17:44.201Z,97715.13
2023-11-03T12:20:15.651Z,97713.63
2023-11-03T12:22:43.624Z,97707.99
2023-11-03T12:25:11.789Z,97708.25
2023-11-03T12:27:41.336Z,97702.98
2023-11-03T12:30:12.925Z,97694.61
2023-11-03T12:32:43.202Z,97691.06
2023-11-03T12:35:12.102Z,97687.61
2023-11-03T12:37:44.697Z,97684.04
2023-11-03T12:40:23.999Z,97677.36
2023-11-03T12:42:54.396Z,97684.04
2023-11-03T12:45:24.084Z,97684.40
2023-11-03T12:47:52.420Z,97687.43
2023-11-03T12:50:25.574Z,97690.05
2023-11-03T12:53:01.288Z,97687.79
2023-11-03T12:55:32.356Z,97686.66
2023-11-03T12:58:00.473Z,97684.79
2023-11-03T13:00:37.529Z,97689.94
2023-11-03T13:03:06.380Z,97685.22
2023-11-03T13:05:36.002Z,97686.05
2023-11-03T13:08:05.184Z,97685.30
2023-11-03T13:10:33.458Z,97680.52
2023-11-03T13:13:01.963Z,97691.73
2023-11-03T13:15:33.874Z,97690.95
2023-11-03T13:18:04.168Z,97695.14
2023-11-03T13:20:32.126Z,97697.87
2023-11-03T13:23:00.399Z,97696.67
2023-11-03T13:25:29.884Z,97697.27
2023-11-03T13:27:58.616Z,97695.30
2023-11-03T13:30:26.712Z,97694.02
2023-11-03T13:32:55.443Z,97687.50
2023-11-03T13:35:25.706Z,97689.06
2023-11-03T13:37:53.952Z,97679.85
2023-11-03T13:40:22.415Z,97674.47
2023-11-03T13:42:52.321Z,97668.70
2023-11-03T13:45:20.316Z,97660.21
2023-11-03T13:47:49.587Z,97651.80
2023-11-03T13:50:22.186Z,97654.46
2023-11-03T13:52:52.444Z,97664.34
2023-11-03T13:55:23.055Z,97668.88
2023-11-03T13:57:53.094Z,97672.66
2023-11-03T14:00:22.529Z,97670.63
2023-11-03T14:02:50.579Z,97666.48
2023-11-03T14:05:18.661Z,97673.41
2023-11-03T14:07:47.846Z,97670.89
2023-11-03T14:10:16.491Z,97666.38
2023-11-03T14:12:45.392Z,97665.38
2023-11-03T14:15:14.314Z,97658.62
2023-11-03T14:17:43.526Z,97653.35
2023-11-03T14:20:13.933Z,97643.19
2023-11-03T14:22:45.713Z,97630.21
2023-11-03T14:25:13.850Z,97624.41
2023-11-03T14:27:42.765Z,97622.52
2023-11-03T14:30:13.736Z,97616.05
2023-11-03T14:32:42.995Z,97605.95
2023-11-03T14:35:13.283Z,97596.66
2023-11-03T14:37:43.293Z,97602.24
2023-11-03T14:40:16.070Z,97613.45
2023-11-03T14:42:48.883Z,97613.42
2023-11-03T14:45:21.059Z,97608.17
2023-11-03T14:47:49.848Z,97621.84
2023-11-03T14:50:18.047Z,97635.77
2023-11-03T14:52:47.587Z,97647.16
2023-11-03T14:55:18.533Z,97651.43
2023-11-03T14:57:47.058Z,97651.20
2023-11-03T15:00:17.255Z,97646.14
2023-11-03T15:02:45.783Z,97656.95
2023-11-03T15:05:14.326Z,97659.30
2023-11-03T15:07:42.426Z,97659.70
2023-11-03T15:10:13.042Z,97657.22
2023-11-03T15:12:45.697Z,97659.20
2023-11-03T15:15:14.772Z,97656.24
2023-11-03T15:17:46.612Z,97638.71
2023-11-03T15:20:17.810Z,97636.94
2023-11-03T15:22:47.020Z,97633.59
2023-11-03T15:25:16.968Z,97627.52
2023-11-03T15:27:47.686Z,97630.46
2023-11-03T15:30:18.783Z,97635.07
2023-11-03T15:32:48.153Z,97636.98
2023-11-03T15:35:17.603Z,97632.36
2023-11-03T15:37:45.979Z,97628.83
2023-11-03T15:40:20.932Z,97622.13
2023-11-03T15:42:49.805Z,97621.06
2023-11-03T15:45:18.499Z,97611.23
2023-11-03T15:47:49.208Z,97602.50
2023-11-03T15:50:21.941Z,97603.59
2023-11-03T15:52:52.108Z,97608.63
2023-11-03T15:55:20.769Z,97609.06
2023-11-03T15:57:51.430Z,97611.81
2023-11-03T16:00:24.017Z,97609.95
2023-11-03T16:02:52.909Z,97614.50
2023-11-03T16:05:21.210Z,97617.41
2023-11-03T16:07:49.152Z,97615.08
2023-11-03T16:10:17.899Z,97609.33
2023-11-03T16:12:47.915Z,97603.44
2023-11-03T16:15:17.165Z,97602.60
2023-11-03T16:17:45.454Z,97603.59
2023-11-03T16:20:15.158Z,97606.33
2023-11-03T16:22:43.794Z,97609.17
2023-11-03T16:25:16.632Z,97606.04
2023-11-03T16:27:45.561Z,97604.18
2023-11-03T16:30:17.867Z,97604.05
2023-11-03T16:32:48.223Z,97613.25
2023-11-03T16:35:16.560Z,97610.88
2023-11-03T16:37:44.694Z,97612.76
2023-11-03T16:40:13.445Z,97614.77
2023-11-03T16:42:45.151Z,97619.17
2023-11-03T16:45:14.118Z,97614.64
2023-11-03T16:47:42.835Z,97609.57
2023-11-03T16:50:12.944Z,97614.55
2023-11-03T16:52:42.029Z,97614.67
2023-11-03T16:55:15.423Z,97607.89
2023-11-03T16:57:44.776Z,97604.52
2023-11-03T17:00:36.090Z,97595.66
2023-11-03T17:04:00.386Z,97573.44
2023-11-03T17:07:11.364Z,97578.98
2023-11-03T17:25:59.069Z,97582.81
2023-11-03T17:40:03.821Z,97573.44
2023-11-03T17:43:50.382Z,97575.99
2023-11-03T17:53:26.883Z,97565.45
2023-11-03T17:56:54.901Z,97558.04
2023-11-03T18:06:40.115Z,97552.10
2023-11-03T18:09:28.394Z,97541.86
2023-11-03T18:15:37.755Z,97553.23
2023-11-03T18:18:24.435Z,97554.96
2023-11-03T18:21:30.077Z,97549.80
2023-11-03T18:24:14.450Z,97545.98
2023-11-03T18:29:50.330Z,97534.73
2023-11-03T18:32:25.155Z,97535.36
2023-11-03T18:34:54.231Z,97534.58
2023-11-03T18:37:42.300Z,97541.01
2023-11-03T18:43:27.899Z,97522.83
2023-11-03T18:46:09.217Z,97546.55
2023-11-03T18:48:52.513Z,97557.45
2023-11-03T18:57:38.890Z,97563.36
2023-11-03T19:18:52.517Z,97552.96
2023-11-03T19:21:50.583Z,97550.02
2023-11-03T19:28:47.081Z,97553.34
2023-11-03T19:32:48.976Z,97546.68
2023-11-03T19:36:38.247Z,97543.41
2023-11-03T19:39:22.966Z,97536.44
2023-11-03T19:42:25.745Z,97547.48
2023-11-03T19:45:28.400Z,97555.67
2023-11-03T19:48:24.621Z,97562.13
2023-11-03T19:51:10.295Z,97565.65
2023-11-03T20:05:11.905Z,97569.59
2023-11-03T20:15:20.255Z,97575.39
2023-11-03T20:17:59.813Z,97582.86
2023-11-03T20:20:27.770Z,97580.38
2023-11-03T20:22:55.890Z,97578.55
2023-11-03T20:25:24.031Z,97565.33
2023-11-03T20:27:57.298Z,97576.79
2023-11-03T20:30:25.895Z,97581.89
2023-11-03T20:32:58.566Z,97586.27
2023-11-03T20:35:26.983Z,97589.71
2023-11-03T20:38:04.512Z,97596.06
2023-11-03T20:40:33.307Z,97601.05
2023-11-03T20:43:01.230Z,97601.67
2023-11-03T20:45:29.228Z,97620.50
2023-11-03T20:47:57.318Z,97625.76
2023-11-03T20:50:25.794Z,97635.96
2023-11-03T20:53:06.454Z,97637.64
2023-11-03T20:55:35.493Z,97653.48
2023-11-03T20:58:11.206Z,97656.63
2023-11-03T21:00:40.788Z,97668.71
2023-11-03T21:03:09.026Z,97677.05
2023-11-03T21:05:37.347Z,97683.89
2023-11-03T21:08:05.788Z,97686.42
2023-11-03T21:10:34.475Z,97691.92
2023-11-03T21:13:04.531Z,97695.75
2023-11-03T21:15:32.821Z,97681.63
2023-11-03T21:18:00.798Z,97697.64
2023-11-03T21:20:28.803Z,97699.54
2023-11-03T21:22:56.757Z,97700.88
2023-11-03T21:25:24.681Z,97701.84
2023-11-03T21:27:54.710Z,97699.35
2023-11-03T21:30:24.315Z,97698.80
2023-11-03T21:32:52.590Z,97702.03
2023-11-03T21:35:20.577Z,97707.23
2023-11-03T21:37:49.373Z,97709.81
2023-11-03T21:40:31.198Z,97709.74
2023-11-03T21:43:07.071Z,97717.73
2023-11-03T21:45:36.040Z,97718.45
2023-11-03T21:48:07.150Z,97716.86
2023-11-03T21:50:37.933Z,97722.07
2023-11-03T21:53:05.812Z,97728.17
2023-11-03T21:55:33.753Z,97730.70
2023-11-03T21:58:02.891Z,97730.02
2023-11-03T22:00:31.007Z,97734.75
2023-11-03T22:02:59.039Z,97735.30
2023-11-03T22:05:27.183Z,97734.30
2023-11-03T22:07:56.078Z,97737.82
2023-11-03T22:10:24.261Z,97743.73
2023-11-03T22:12:52.471Z,97750.49
2023-11-03T22:15:21.128Z,97754.70
2023-11-03T22:17:53.501Z,97752.75
2023-11-03T22:20:26.483Z,97760.27
2023-11-03T22:22:54.753Z,97761.37
2023-11-03T22:25:22.711Z,97759.51
2023-11-03T22:27:50.846Z,97762.25
2023-11-03T22:30:25.126Z,97764.29
2023-11-03T22:32:57.230Z,97767.90
2023-11-03T22:35:26.036Z,97766.77
2023-11-03T22:37:54.566Z,97763.14
2023-11-03T22:40:22.487Z,97769.11
2023-11-03T22:42:52.169Z,97766.19
2023-11-03T22:45:21.272Z,97769.62
2023-11-03T22:47:49.228Z,97776.36
2023-11-03T22:50:17.425Z,97776.83
2023-11-03T22:52:45.254Z,97779.20
2023-11-03T22:55:15.393Z,97777.13
2023-11-03T22:57:43.480Z,97778.58
2023-11-03T23:00:18.051Z,97780.28
2023-11-03T23:02:46.096Z,97780.10
2023-11-03T23:05:14.241Z,97782.27
2023-11-03T23:07:42.160Z,97781.41
2023-11-03T23:10:15.477Z,97786.38
2023-11-03T23:12:43.463Z,97791.40
2023-11-03T23:15:12.169Z,97793.03
2023-11-03T23:17:44.162Z,97789.29
2023-11-03T23:20:17.515Z,97797.99
2023-11-03T23:22:46.261Z,97805.48
2023-11-03T23:25:14.651Z,97813.96
2023-11-03T23:27:44.232Z,97819.94
2023-11-03T23:30:13.414Z,97816.09
2023-11-03T23:32:41.888Z,97818.21
2023-11-03T23:35:12.857Z,97820.83
2023-11-03T23:37:40.929Z,97822.37
2023-11-03T23:40:10.081Z,97827.02
2023-11-03T23:42:38.400Z,97833.03
2023-11-03T23:45:06.866Z,97837.46
2023-11-03T23:47:35.177Z,97840.85
2023-11-03T23:50:04.736Z,97842.29
2023-11-03T23:52:32.713Z,97845.86
2023-11-03T23:55:02.815Z,97852.74
2023-11-03T23:57:32.487Z,97851.40
